sensor_id;sensor_type;location;lat;lon;timestamp;P1;durP1;ratioP1;P2;durP2;ratioP2
58250;SDS011;51449;51.676;5.812;2022-09-09T00:04:35;1.80;;;1.70;;
58250;SDS011;51449;51.676;5.812;2022-09-09T00:09:52;2.20;;;1.80;;
58250;SDS011;51449;51.676;5.812;2022-09-09T00:12:53;3.78;;;2.17;;
58250;SDS011;51449;51.676;5.812;2022-09-09T00:15:24;4.13;;;2.03;;
58250;SDS011;51449;51.676;5.812;2022-09-09T00:23:24;3.57;;;2.43;;
58250;SDS011;51449;51.676;5.812;2022-09-09T00:28:41;3.60;;;2.30;;
58250;SDS011;51449;51.676;5.812;2022-09-09T00:31:31;2.70;;;2.30;;
58250;SDS011;51449;51.676;5.812;2022-09-09T00:33:53;3.57;;;2.50;;
58250;SDS011;51449;51.676;5.812;2022-09-09T00:36:24;4.40;;;2.67;;
58250;SDS011;51449;51.676;5.812;2022-09-09T00:38:57;3.33;;;2.40;;
58250;SDS011;51449;51.676;5.812;2022-09-09T00:41:29;4.80;;;3.47;;
58250;SDS011;51449;51.676;5.812;2022-09-09T00:44:49;4.13;;;3.77;;
58250;SDS011;51449;51.676;5.812;2022-09-09T00:47:49;7.07;;;3.00;;
58250;SDS011;51449;51.676;5.812;2022-09-09T00:56:14;4.37;;;2.70;;
58250;SDS011;51449;51.676;5.812;2022-09-09T00:58:48;4.17;;;3.30;;
58250;SDS011;51449;51.676;5.812;2022-09-09T01:01:48;2.83;;;2.63;;
58250;SDS011;51449;51.676;5.812;2022-09-09T01:04:33;3.33;;;2.97;;
58250;SDS011;51449;51.676;5.812;2022-09-09T01:07:17;2.80;;;2.60;;
58250;SDS011;51449;51.676;5.812;2022-09-09T01:09:59;5.30;;;2.90;;
58250;SDS011;51449;51.676;5.812;2022-09-09T01:12:48;4.77;;;2.90;;
58250;SDS011;51449;51.676;5.812;2022-09-09T01:15:34;3.95;;;2.88;;
58250;SDS011;51449;51.676;5.812;2022-09-09T01:18:17;5.90;;;3.23;;
58250;SDS011;51449;51.676;5.812;2022-09-09T01:27:03;5.83;;;3.10;;
58250;SDS011;51449;51.676;5.812;2022-09-09T01:29:29;2.93;;;2.67;;
58250;SDS011;51449;51.676;5.812;2022-09-09T01:31:55;4.87;;;2.53;;
58250;SDS011;51449;51.676;5.812;2022-09-09T01:34:25;5.27;;;3.13;;
58250;SDS011;51449;51.676;5.812;2022-09-09T01:37:09;4.00;;;3.03;;
58250;SDS011;51449;51.676;5.812;2022-09-09T01:39:35;4.60;;;2.83;;
58250;SDS011;51449;51.676;5.812;2022-09-09T01:42:04;4.27;;;3.00;;
58250;SDS011;51449;51.676;5.812;2022-09-09T01:44:30;4.57;;;3.00;;
58250;SDS011;51449;51.676;5.812;2022-09-09T01:46:54;7.50;;;3.35;;
58250;SDS011;51449;51.676;5.812;2022-09-09T01:49:17;5.43;;;3.43;;
58250;SDS011;51449;51.676;5.812;2022-09-09T01:51:40;5.37;;;3.40;;
58250;SDS011;51449;51.676;5.812;2022-09-09T01:54:07;4.60;;;2.87;;
58250;SDS011;51449;51.676;5.812;2022-09-09T01:59:54;4.70;;;3.20;;
58250;SDS011;51449;51.676;5.812;2022-09-09T02:03:20;5.90;;;3.30;;
58250;SDS011;51449;51.676;5.812;2022-09-09T02:05:55;6.73;;;3.37;;
58250;SDS011;51449;51.676;5.812;2022-09-09T02:08:48;4.60;;;3.60;;
58250;SDS011;51449;51.676;5.812;2022-09-09T02:11:15;4.47;;;3.40;;
58250;SDS011;51449;51.676;5.812;2022-09-09T02:14:08;4.33;;;3.07;;
58250;SDS011;51449;51.676;5.812;2022-09-09T02:16:42;5.67;;;3.50;;
58250;SDS011;51449;51.676;5.812;2022-09-09T02:19:14;6.30;;;3.80;;
58250;SDS011;51449;51.676;5.812;2022-09-09T02:21:56;5.23;;;3.63;;
58250;SDS011;51449;51.676;5.812;2022-09-09T02:24:22;4.03;;;3.57;;
58250;SDS011;51449;51.676;5.812;2022-09-09T02:26:53;6.63;;;3.43;;
58250;SDS011;51449;51.676;5.812;2022-09-09T02:29:23;6.93;;;3.80;;
58250;SDS011;51449;51.676;5.812;2022-09-09T02:31:53;5.57;;;3.70;;
58250;SDS011;51449;51.676;5.812;2022-09-09T02:34:27;6.43;;;3.42;;
58250;SDS011;51449;51.676;5.812;2022-09-09T02:36:55;4.07;;;3.33;;
58250;SDS011;51449;51.676;5.812;2022-09-09T02:39:22;6.70;;;3.70;;
58250;SDS011;51449;51.676;5.812;2022-09-09T02:41:45;7.27;;;3.43;;
58250;SDS011;51449;51.676;5.812;2022-09-09T02:44:16;5.07;;;3.17;;
58250;SDS011;51449;51.676;5.812;2022-09-09T02:52:38;5.40;;;3.30;;
58250;SDS011;51449;51.676;5.812;2022-09-09T02:55:14;6.73;;;3.93;;
58250;SDS011;51449;51.676;5.812;2022-09-09T02:57:45;8.07;;;3.80;;
58250;SDS011;51449;51.676;5.812;2022-09-09T03:00:11;7.40;;;3.63;;
58250;SDS011;51449;51.676;5.812;2022-09-09T03:02:34;7.90;;;3.80;;
58250;SDS011;51449;51.676;5.812;2022-09-09T03:04:59;5.70;;;3.90;;
58250;SDS011;51449;51.676;5.812;2022-09-09T03:07:21;7.50;;;4.57;;
58250;SDS011;51449;51.676;5.812;2022-09-09T03:09:45;9.00;;;4.10;;
58250;SDS011;51449;51.676;5.812;2022-09-09T03:12:07;9.13;;;3.83;;
58250;SDS011;51449;51.676;5.812;2022-09-09T03:14:29;6.23;;;4.10;;
58250;SDS011;51449;51.676;5.812;2022-09-09T03:16:52;7.27;;;3.90;;
58250;SDS011;51449;51.676;5.812;2022-09-09T03:19:15;7.13;;;4.00;;
58250;SDS011;51449;51.676;5.812;2022-09-09T03:21:37;5.33;;;3.67;;
58250;SDS011;51449;51.676;5.812;2022-09-09T03:24:00;6.40;;;3.73;;
58250;SDS011;51449;51.676;5.812;2022-09-09T03:26:24;7.37;;;3.83;;
58250;SDS011;51449;51.676;5.812;2022-09-09T03:28:47;7.47;;;4.13;;
58250;SDS011;51449;51.676;5.812;2022-09-09T03:31:12;7.90;;;4.40;;
58250;SDS011;51449;51.676;5.812;2022-09-09T03:33:38;6.93;;;3.60;;
58250;SDS011;51449;51.676;5.812;2022-09-09T03:36:05;9.87;;;4.10;;
58250;SDS011;51449;51.676;5.812;2022-09-09T03:38:28;7.35;;;4.03;;
58250;SDS011;51449;51.676;5.812;2022-09-09T03:40:51;6.10;;;4.13;;
58250;SDS011;51449;51.676;5.812;2022-09-09T03:43:19;5.40;;;3.60;;
58250;SDS011;51449;51.676;5.812;2022-09-09T03:45:46;9.90;;;4.13;;
58250;SDS011;51449;51.676;5.812;2022-09-09T03:48:09;5.53;;;4.03;;
58250;SDS011;51449;51.676;5.812;2022-09-09T03:50:33;7.20;;;3.80;;
58250;SDS011;51449;51.676;5.812;2022-09-09T03:52:55;9.57;;;3.93;;
58250;SDS011;51449;51.676;5.812;2022-09-09T03:55:18;8.50;;;3.73;;
58250;SDS011;51449;51.676;5.812;2022-09-09T03:57:40;6.90;;;4.40;;
58250;SDS011;51449;51.676;5.812;2022-09-09T04:00:04;5.73;;;4.10;;
58250;SDS011;51449;51.676;5.812;2022-09-09T04:02:36;8.17;;;4.10;;
58250;SDS011;51449;51.676;5.812;2022-09-09T04:04:58;8.33;;;4.07;;
58250;SDS011;51449;51.676;5.812;2022-09-09T04:07:21;8.43;;;4.30;;
58250;SDS011;51449;51.676;5.812;2022-09-09T04:09:43;8.10;;;4.07;;
58250;SDS011;51449;51.676;5.812;2022-09-09T04:12:05;6.43;;;3.90;;
58250;SDS011;51449;51.676;5.812;2022-09-09T04:14:29;5.93;;;4.10;;
58250;SDS011;51449;51.676;5.812;2022-09-09T04:16:52;7.67;;;4.30;;
58250;SDS011;51449;51.676;5.812;2022-09-09T04:19:14;6.73;;;3.83;;
58250;SDS011;51449;51.676;5.812;2022-09-09T04:21:37;8.20;;;4.13;;
58250;SDS011;51449;51.676;5.812;2022-09-09T04:24:01;4.90;;;4.03;;
58250;SDS011;51449;51.676;5.812;2022-09-09T04:26:23;6.67;;;4.13;;
58250;SDS011;51449;51.676;5.812;2022-09-09T04:28:46;6.00;;;3.87;;
58250;SDS011;51449;51.676;5.812;2022-09-09T04:31:17;8.83;;;4.07;;
58250;SDS011;51449;51.676;5.812;2022-09-09T04:33:48;8.03;;;4.37;;
58250;SDS011;51449;51.676;5.812;2022-09-09T04:36:11;7.07;;;4.70;;
58250;SDS011;51449;51.676;5.812;2022-09-09T04:38:34;6.40;;;4.23;;
58250;SDS011;51449;51.676;5.812;2022-09-09T04:40:57;6.30;;;4.07;;
58250;SDS011;51449;51.676;5.812;2022-09-09T04:43:20;6.93;;;3.67;;
58250;SDS011;51449;51.676;5.812;2022-09-09T04:45:47;8.93;;;4.38;;
58250;SDS011;51449;51.676;5.812;2022-09-09T04:48:10;7.70;;;4.40;;
58250;SDS011;51449;51.676;5.812;2022-09-09T04:50:32;8.80;;;4.20;;
58250;SDS011;51449;51.676;5.812;2022-09-09T04:52:54;8.53;;;4.23;;
58250;SDS011;51449;51.676;5.812;2022-09-09T04:55:16;8.53;;;4.33;;
58250;SDS011;51449;51.676;5.812;2022-09-09T04:57:39;5.93;;;4.33;;
58250;SDS011;51449;51.676;5.812;2022-09-09T05:00:05;5.80;;;3.80;;
58250;SDS011;51449;51.676;5.812;2022-09-09T05:02:32;9.47;;;3.73;;
58250;SDS011;51449;51.676;5.812;2022-09-09T05:04:54;8.87;;;3.80;;
58250;SDS011;51449;51.676;5.812;2022-09-09T05:07:17;7.27;;;4.23;;
58250;SDS011;51449;51.676;5.812;2022-09-09T05:09:40;8.83;;;3.73;;
58250;SDS011;51449;51.676;5.812;2022-09-09T05:12:02;10.13;;;4.00;;
58250;SDS011;51449;51.676;5.812;2022-09-09T05:14:28;8.87;;;4.17;;
58250;SDS011;51449;51.676;5.812;2022-09-09T05:16:53;8.37;;;3.87;;
58250;SDS011;51449;51.676;5.812;2022-09-09T05:19:16;11.33;;;4.10;;
58250;SDS011;51449;51.676;5.812;2022-09-09T05:21:42;8.33;;;4.03;;
58250;SDS011;51449;51.676;5.812;2022-09-09T05:24:06;7.50;;;3.88;;
58250;SDS011;51449;51.676;5.812;2022-09-09T05:26:29;8.87;;;3.90;;
58250;SDS011;51449;51.676;5.812;2022-09-09T05:28:52;9.80;;;4.00;;
58250;SDS011;51449;51.676;5.812;2022-09-09T05:31:15;9.70;;;3.83;;
58250;SDS011;51449;51.676;5.812;2022-09-09T05:33:43;7.30;;;3.43;;
58250;SDS011;51449;51.676;5.812;2022-09-09T05:36:11;7.53;;;3.77;;
58250;SDS011;51449;51.676;5.812;2022-09-09T05:38:41;9.37;;;4.13;;
58250;SDS011;51449;51.676;5.812;2022-09-09T05:41:04;7.43;;;3.60;;
58250;SDS011;51449;51.676;5.812;2022-09-09T05:43:26;6.67;;;3.70;;
58250;SDS011;51449;51.676;5.812;2022-09-09T05:45:59;8.73;;;4.33;;
58250;SDS011;51449;51.676;5.812;2022-09-09T05:48:42;11.03;;;3.83;;
58250;SDS011;51449;51.676;5.812;2022-09-09T05:51:10;8.67;;;3.70;;
58250;SDS011;51449;51.676;5.812;2022-09-09T05:53:36;10.10;;;3.50;;
58250;SDS011;51449;51.676;5.812;2022-09-09T05:56:09;8.23;;;4.00;;
58250;SDS011;51449;51.676;5.812;2022-09-09T05:58:37;5.80;;;3.67;;
58250;SDS011;51449;51.676;5.812;2022-09-09T06:01:07;8.27;;;3.60;;
58250;SDS011;51449;51.676;5.812;2022-09-09T06:03:35;9.37;;;4.00;;
58250;SDS011;51449;51.676;5.812;2022-09-09T06:06:02;7.33;;;3.40;;
58250;SDS011;51449;51.676;5.812;2022-09-09T06:08:27;6.37;;;3.50;;
58250;SDS011;51449;51.676;5.812;2022-09-09T06:10:49;7.50;;;3.47;;
58250;SDS011;51449;51.676;5.812;2022-09-09T06:13:11;7.93;;;3.50;;
58250;SDS011;51449;51.676;5.812;2022-09-09T06:15:34;10.67;;;3.80;;
58250;SDS011;51449;51.676;5.812;2022-09-09T06:17:57;8.90;;;3.80;;
58250;SDS011;51449;51.676;5.812;2022-09-09T06:20:19;8.43;;;3.50;;
58250;SDS011;51449;51.676;5.812;2022-09-09T06:22:41;8.73;;;3.80;;
58250;SDS011;51449;51.676;5.812;2022-09-09T06:25:03;11.83;;;3.67;;
58250;SDS011;51449;51.676;5.812;2022-09-09T06:27:27;11.43;;;4.33;;
58250;SDS011;51449;51.676;5.812;2022-09-09T06:29:50;10.32;;;4.35;;
58250;SDS011;51449;51.676;5.812;2022-09-09T06:32:12;10.87;;;3.80;;
58250;SDS011;51449;51.676;5.812;2022-09-09T06:34:34;8.60;;;4.10;;
58250;SDS011;51449;51.676;5.812;2022-09-09T06:36:57;8.10;;;3.87;;
58250;SDS011;51449;51.676;5.812;2022-09-09T06:39:24;12.27;;;3.77;;
58250;SDS011;51449;51.676;5.812;2022-09-09T06:41:47;11.07;;;4.23;;
58250;SDS011;51449;51.676;5.812;2022-09-09T06:44:32;8.07;;;3.90;;
58250;SDS011;51449;51.676;5.812;2022-09-09T06:46:57;12.10;;;4.43;;
58250;SDS011;51449;51.676;5.812;2022-09-09T06:49:19;6.67;;;3.67;;
58250;SDS011;51449;51.676;5.812;2022-09-09T06:51:41;7.13;;;3.40;;
58250;SDS011;51449;51.676;5.812;2022-09-09T06:54:07;7.43;;;4.07;;
58250;SDS011;51449;51.676;5.812;2022-09-09T06:56:29;11.10;;;4.23;;
58250;SDS011;51449;51.676;5.812;2022-09-09T06:59:02;6.37;;;3.70;;
58250;SDS011;51449;51.676;5.812;2022-09-09T07:01:31;9.40;;;4.10;;
58250;SDS011;51449;51.676;5.812;2022-09-09T07:04:00;8.80;;;3.80;;
58250;SDS011;51449;51.676;5.812;2022-09-09T07:06:26;8.33;;;3.93;;
58250;SDS011;51449;51.676;5.812;2022-09-09T07:08:55;8.20;;;3.90;;
58250;SDS011;51449;51.676;5.812;2022-09-09T07:11:28;10.30;;;4.00;;
58250;SDS011;51449;51.676;5.812;2022-09-09T07:13:54;7.33;;;3.83;;
58250;SDS011;51449;51.676;5.812;2022-09-09T07:16:19;6.88;;;4.07;;
58250;SDS011;51449;51.676;5.812;2022-09-09T07:18:50;8.63;;;3.70;;
58250;SDS011;51449;51.676;5.812;2022-09-09T07:21:14;7.40;;;3.80;;
58250;SDS011;51449;51.676;5.812;2022-09-09T07:23:37;8.90;;;3.47;;
58250;SDS011;51449;51.676;5.812;2022-09-09T07:26:00;10.67;;;4.30;;
58250;SDS011;51449;51.676;5.812;2022-09-09T07:28:22;9.80;;;4.07;;
58250;SDS011;51449;51.676;5.812;2022-09-09T07:30:56;9.73;;;3.50;;
58250;SDS011;51449;51.676;5.812;2022-09-09T07:33:25;11.90;;;4.00;;
58250;SDS011;51449;51.676;5.812;2022-09-09T07:35:47;9.37;;;3.37;;
58250;SDS011;51449;51.676;5.812;2022-09-09T07:38:09;9.97;;;3.40;;
58250;SDS011;51449;51.676;5.812;2022-09-09T07:40:33;9.27;;;3.33;;
58250;SDS011;51449;51.676;5.812;2022-09-09T07:42:55;8.50;;;3.40;;
58250;SDS011;51449;51.676;5.812;2022-09-09T07:45:17;11.90;;;3.80;;
58250;SDS011;51449;51.676;5.812;2022-09-09T07:47:39;9.40;;;3.80;;
58250;SDS011;51449;51.676;5.812;2022-09-09T07:50:03;11.60;;;3.38;;
58250;SDS011;51449;51.676;5.812;2022-09-09T07:52:26;7.17;;;3.20;;
58250;SDS011;51449;51.676;5.812;2022-09-09T07:54:52;6.83;;;3.07;;
58250;SDS011;51449;51.676;5.812;2022-09-09T07:57:14;10.70;;;3.37;;
58250;SDS011;51449;51.676;5.812;2022-09-09T07:59:40;8.07;;;3.00;;
58250;SDS011;51449;51.676;5.812;2022-09-09T08:02:02;10.43;;;3.20;;
58250;SDS011;51449;51.676;5.812;2022-09-09T08:04:27;7.57;;;3.03;;
58250;SDS011;51449;51.676;5.812;2022-09-09T08:06:50;7.87;;;2.53;;
58250;SDS011;51449;51.676;5.812;2022-09-09T08:09:24;8.63;;;3.20;;
58250;SDS011;51449;51.676;5.812;2022-09-09T08:12:00;8.80;;;2.70;;
58250;SDS011;51449;51.676;5.812;2022-09-09T08:14:23;7.03;;;2.78;;
58250;SDS011;51449;51.676;5.812;2022-09-09T08:16:47;7.87;;;2.70;;
58250;SDS011;51449;51.676;5.812;2022-09-09T08:19:14;8.30;;;2.90;;
58250;SDS011;51449;51.676;5.812;2022-09-09T08:21:38;8.10;;;2.63;;
58250;SDS011;51449;51.676;5.812;2022-09-09T08:24:02;8.45;;;2.80;;
58250;SDS011;51449;51.676;5.812;2022-09-09T08:26:26;7.40;;;2.33;;
58250;SDS011;51449;51.676;5.812;2022-09-09T08:28:52;5.87;;;2.57;;
58250;SDS011;51449;51.676;5.812;2022-09-09T08:31:25;6.77;;;2.60;;
58250;SDS011;51449;51.676;5.812;2022-09-09T08:33:54;10.97;;;2.80;;
58250;SDS011;51449;51.676;5.812;2022-09-09T08:36:19;8.45;;;2.50;;
58250;SDS011;51449;51.676;5.812;2022-09-09T08:38:46;6.23;;;2.33;;
58250;SDS011;51449;51.676;5.812;2022-09-09T08:43:58;7.33;;;2.27;;
58250;SDS011;51449;51.676;5.812;2022-09-09T08:47:04;6.63;;;2.17;;
58250;SDS011;51449;51.676;5.812;2022-09-09T08:55:30;6.33;;;1.90;;
58250;SDS011;51449;51.676;5.812;2022-09-09T08:58:02;9.80;;;2.80;;
58250;SDS011;51449;51.676;5.812;2022-09-09T09:00:40;7.22;;;2.40;;
58250;SDS011;51449;51.676;5.812;2022-09-09T09:06:01;6.73;;;2.27;;
58250;SDS011;51449;51.676;5.812;2022-09-09T09:11:47;5.43;;;1.90;;
58250;SDS011;51449;51.676;5.812;2022-09-09T09:14:29;8.50;;;2.30;;
58250;SDS011;51449;51.676;5.812;2022-09-09T09:16:59;8.43;;;2.10;;
58250;SDS011;51449;51.676;5.812;2022-09-09T09:19:27;7.33;;;2.30;;
58250;SDS011;51449;51.676;5.812;2022-09-09T09:24:51;6.47;;;1.90;;
58250;SDS011;51449;51.676;5.812;2022-09-09T09:27:40;7.70;;;2.20;;
58250;SDS011;51449;51.676;5.812;2022-09-09T09:30:20;8.17;;;2.20;;
58250;SDS011;51449;51.676;5.812;2022-09-09T09:32:58;7.27;;;1.93;;
58250;SDS011;51449;51.676;5.812;2022-09-09T09:35:30;8.13;;;2.25;;
58250;SDS011;51449;51.676;5.812;2022-09-09T09:37:55;8.00;;;2.07;;
58250;SDS011;51449;51.676;5.812;2022-09-09T09:40:47;8.50;;;2.10;;
58250;SDS011;51449;51.676;5.812;2022-09-09T09:43:33;9.25;;;2.20;;
58250;SDS011;51449;51.676;5.812;2022-09-09T09:46:03;6.17;;;2.17;;
58250;SDS011;51449;51.676;5.812;2022-09-09T09:48:39;6.83;;;2.50;;
58250;SDS011;51449;51.676;5.812;2022-09-09T09:51:07;9.33;;;2.10;;
58250;SDS011;51449;51.676;5.812;2022-09-09T09:53:36;6.80;;;2.23;;
58250;SDS011;51449;51.676;5.812;2022-09-09T09:56:02;5.90;;;2.10;;
58250;SDS011;51449;51.676;5.812;2022-09-09T09:58:29;9.13;;;2.10;;
58250;SDS011;51449;51.676;5.812;2022-09-09T10:00:55;6.67;;;2.30;;
58250;SDS011;51449;51.676;5.812;2022-09-09T10:03:25;6.90;;;1.70;;
58250;SDS011;51449;51.676;5.812;2022-09-09T10:05:55;9.77;;;2.22;;
58250;SDS011;51449;51.676;5.812;2022-09-09T10:08:17;7.87;;;2.17;;
58250;SDS011;51449;51.676;5.812;2022-09-09T10:11:02;7.17;;;2.00;;
58250;SDS011;51449;51.676;5.812;2022-09-09T10:19:34;8.87;;;2.07;;
58250;SDS011;51449;51.676;5.812;2022-09-09T10:28:30;5.53;;;1.93;;
58250;SDS011;51449;51.676;5.812;2022-09-09T10:36:17;7.07;;;2.27;;
58250;SDS011;51449;51.676;5.812;2022-09-09T10:38:48;5.80;;;1.90;;
58250;SDS011;51449;51.676;5.812;2022-09-09T10:44:11;6.60;;;2.33;;
58250;SDS011;51449;51.676;5.812;2022-09-09T10:46:42;5.17;;;2.10;;
58250;SDS011;51449;51.676;5.812;2022-09-09T10:49:44;4.67;;;1.70;;
58250;SDS011;51449;51.676;5.812;2022-09-09T10:52:55;3.97;;;1.87;;
58250;SDS011;51449;51.676;5.812;2022-09-09T10:55:37;5.93;;;2.00;;
58250;SDS011;51449;51.676;5.812;2022-09-09T10:58:05;8.00;;;2.50;;
58250;SDS011;51449;51.676;5.812;2022-09-09T11:00:38;7.10;;;2.40;;
58250;SDS011;51449;51.676;5.812;2022-09-09T11:03:06;7.67;;;2.30;;
58250;SDS011;51449;51.676;5.812;2022-09-09T11:05:42;7.33;;;2.67;;
58250;SDS011;51449;51.676;5.812;2022-09-09T11:08:18;7.80;;;2.60;;
58250;SDS011;51449;51.676;5.812;2022-09-09T11:13:40;5.80;;;2.20;;
58250;SDS011;51449;51.676;5.812;2022-09-09T11:16:17;6.03;;;2.53;;
58250;SDS011;51449;51.676;5.812;2022-09-09T11:18:48;9.57;;;2.73;;
58250;SDS011;51449;51.676;5.812;2022-09-09T11:21:20;9.60;;;2.77;;
58250;SDS011;51449;51.676;5.812;2022-09-09T11:24:02;7.30;;;2.70;;
58250;SDS011;51449;51.676;5.812;2022-09-09T11:26:51;10.07;;;3.30;;
58250;SDS011;51449;51.676;5.812;2022-09-09T11:41:51;8.90;;;3.17;;
58250;SDS011;51449;51.676;5.812;2022-09-09T11:44:23;9.57;;;3.43;;
58250;SDS011;51449;51.676;5.812;2022-09-09T11:46:52;5.73;;;2.90;;
58250;SDS011;51449;51.676;5.812;2022-09-09T11:52:10;7.43;;;3.00;;
58250;SDS011;51449;51.676;5.812;2022-09-09T11:54:57;5.70;;;3.17;;
58250;SDS011;51449;51.676;5.812;2022-09-09T11:57:34;5.27;;;2.80;;
58250;SDS011;51449;51.676;5.812;2022-09-09T11:59:57;6.07;;;2.70;;
58250;SDS011;51449;51.676;5.812;2022-09-09T12:02:24;6.93;;;2.90;;
58250;SDS011;51449;51.676;5.812;2022-09-09T12:05:05;5.33;;;2.20;;
58250;SDS011;51449;51.676;5.812;2022-09-09T12:07:38;5.18;;;2.40;;
58250;SDS011;51449;51.676;5.812;2022-09-09T12:15:17;4.80;;;2.10;;
58250;SDS011;51449;51.676;5.812;2022-09-09T12:17:51;3.80;;;2.05;;
58250;SDS011;51449;51.676;5.812;2022-09-09T12:25:58;3.27;;;2.10;;
58250;SDS011;51449;51.676;5.812;2022-09-09T12:31:26;5.50;;;2.50;;
58250;SDS011;51449;51.676;5.812;2022-09-09T12:34:24;5.23;;;2.30;;
58250;SDS011;51449;51.676;5.812;2022-09-09T12:36:57;7.93;;;2.80;;
58250;SDS011;51449;51.676;5.812;2022-09-09T12:39:34;5.20;;;2.90;;
58250;SDS011;51449;51.676;5.812;2022-09-09T12:42:19;4.40;;;2.93;;
58250;SDS011;51449;51.676;5.812;2022-09-09T12:50:23;4.87;;;3.03;;
58250;SDS011;51449;51.676;5.812;2022-09-09T12:52:49;7.50;;;3.33;;
58250;SDS011;51449;51.676;5.812;2022-09-09T12:55:18;6.83;;;2.97;;
58250;SDS011;51449;51.676;5.812;2022-09-09T12:57:47;6.82;;;2.90;;
58250;SDS011;51449;51.676;5.812;2022-09-09T13:00:14;3.92;;;2.85;;
58250;SDS011;51449;51.676;5.812;2022-09-09T13:02:46;5.32;;;3.25;;
58250;SDS011;51449;51.676;5.812;2022-09-09T13:05:15;7.65;;;3.30;;
58250;SDS011;51449;51.676;5.812;2022-09-09T13:07:42;7.30;;;3.58;;
58250;SDS011;51449;51.676;5.812;2022-09-09T13:10:04;6.40;;;2.90;;
58250;SDS011;51449;51.676;5.812;2022-09-09T13:12:28;7.55;;;3.13;;
58250;SDS011;51449;51.676;5.812;2022-09-09T13:14:51;4.65;;;2.83;;
58250;SDS011;51449;51.676;5.812;2022-09-09T13:17:19;5.70;;;2.80;;
58250;SDS011;51449;51.676;5.812;2022-09-09T13:19:50;6.63;;;3.17;;
58250;SDS011;51449;51.676;5.812;2022-09-09T13:25:03;5.13;;;2.70;;
58250;SDS011;51449;51.676;5.812;2022-09-09T13:27:51;6.00;;;2.90;;
58250;SDS011;51449;51.676;5.812;2022-09-09T13:30:25;5.32;;;2.85;;
58250;SDS011;51449;51.676;5.812;2022-09-09T13:33:01;4.70;;;2.90;;
58250;SDS011;51449;51.676;5.812;2022-09-09T13:35:25;6.65;;;3.22;;
58250;SDS011;51449;51.676;5.812;2022-09-09T13:37:47;9.43;;;3.05;;
58250;SDS011;51449;51.676;5.812;2022-09-09T13:40:17;8.20;;;3.22;;
58250;SDS011;51449;51.676;5.812;2022-09-09T13:42:42;7.22;;;3.22;;
58250;SDS011;51449;51.676;5.812;2022-09-09T13:45:14;6.95;;;2.75;;
58250;SDS011;51449;51.676;5.812;2022-09-09T13:47:41;5.63;;;3.10;;
58250;SDS011;51449;51.676;5.812;2022-09-09T13:50:19;10.30;;;3.83;;
58250;SDS011;51449;51.676;5.812;2022-09-09T13:52:44;9.30;;;4.28;;
58250;SDS011;51449;51.676;5.812;2022-09-09T13:55:08;10.63;;;4.43;;
58250;SDS011;51449;51.676;5.812;2022-09-09T13:57:31;8.40;;;4.10;;
58250;SDS011;51449;51.676;5.812;2022-09-09T13:59:53;8.63;;;4.03;;
58250;SDS011;51449;51.676;5.812;2022-09-09T14:02:26;6.43;;;2.77;;
58250;SDS011;51449;51.676;5.812;2022-09-09T14:04:48;7.60;;;3.53;;
58250;SDS011;51449;51.676;5.812;2022-09-09T14:07:12;6.03;;;2.80;;
58250;SDS011;51449;51.676;5.812;2022-09-09T14:09:38;7.53;;;3.00;;
58250;SDS011;51449;51.676;5.812;2022-09-09T14:12:00;5.67;;;2.60;;
58250;SDS011;51449;51.676;5.812;2022-09-09T14:14:23;5.93;;;2.92;;
58250;SDS011;51449;51.676;5.812;2022-09-09T14:16:47;7.10;;;3.25;;
58250;SDS011;51449;51.676;5.812;2022-09-09T14:19:08;5.82;;;3.00;;
58250;SDS011;51449;51.676;5.812;2022-09-09T14:21:31;5.65;;;3.40;;
58250;SDS011;51449;51.676;5.812;2022-09-09T14:23:54;7.05;;;3.65;;
58250;SDS011;51449;51.676;5.812;2022-09-09T14:26:16;5.10;;;3.35;;
58250;SDS011;51449;51.676;5.812;2022-09-09T14:28:40;7.30;;;3.50;;
58250;SDS011;51449;51.676;5.812;2022-09-09T14:31:18;5.32;;;2.75;;
58250;SDS011;51449;51.676;5.812;2022-09-09T14:33:40;5.78;;;2.58;;
58250;SDS011;51449;51.676;5.812;2022-09-09T14:36:02;6.68;;;2.53;;
58250;SDS011;51449;51.676;5.812;2022-09-09T14:38:28;5.47;;;2.47;;
58250;SDS011;51449;51.676;5.812;2022-09-09T14:40:55;3.70;;;2.15;;
58250;SDS011;51449;51.676;5.812;2022-09-09T14:43:17;5.75;;;2.45;;
58250;SDS011;51449;51.676;5.812;2022-09-09T14:45:39;4.10;;;2.30;;
58250;SDS011;51449;51.676;5.812;2022-09-09T14:48:01;4.43;;;2.08;;
58250;SDS011;51449;51.676;5.812;2022-09-09T14:50:24;3.53;;;2.13;;
58250;SDS011;51449;51.676;5.812;2022-09-09T14:52:46;3.83;;;2.17;;
58250;SDS011;51449;51.676;5.812;2022-09-09T14:55:09;3.22;;;1.88;;
58250;SDS011;51449;51.676;5.812;2022-09-09T14:57:31;5.20;;;2.20;;
58250;SDS011;51449;51.676;5.812;2022-09-09T14:59:53;4.10;;;2.50;;
58250;SDS011;51449;51.676;5.812;2022-09-09T15:02:15;4.32;;;2.63;;
58250;SDS011;51449;51.676;5.812;2022-09-09T15:04:38;5.18;;;2.20;;
58250;SDS011;51449;51.676;5.812;2022-09-09T15:07:00;6.07;;;2.20;;
58250;SDS011;51449;51.676;5.812;2022-09-09T15:09:21;4.28;;;2.08;;
58250;SDS011;51449;51.676;5.812;2022-09-09T15:11:44;4.32;;;2.03;;
58250;SDS011;51449;51.676;5.812;2022-09-09T15:14:07;5.10;;;2.20;;
58250;SDS011;51449;51.676;5.812;2022-09-09T15:16:30;4.95;;;2.00;;
58250;SDS011;51449;51.676;5.812;2022-09-09T15:18:57;4.90;;;2.20;;
58250;SDS011;51449;51.676;5.812;2022-09-09T15:21:22;3.03;;;2.13;;
58250;SDS011;51449;51.676;5.812;2022-09-09T15:23:48;6.25;;;2.00;;
58250;SDS011;51449;51.676;5.812;2022-09-09T15:26:11;3.83;;;1.88;;
58250;SDS011;51449;51.676;5.812;2022-09-09T15:28:37;3.72;;;2.00;;
58250;SDS011;51449;51.676;5.812;2022-09-09T15:30:59;4.15;;;2.10;;
58250;SDS011;51449;51.676;5.812;2022-09-09T15:33:29;4.55;;;2.38;;
58250;SDS011;51449;51.676;5.812;2022-09-09T15:35:51;5.65;;;2.30;;
58250;SDS011;51449;51.676;5.812;2022-09-09T15:38:13;5.10;;;2.78;;
58250;SDS011;51449;51.676;5.812;2022-09-09T15:40:35;4.32;;;2.47;;
58250;SDS011;51449;51.676;5.812;2022-09-09T15:42:57;3.55;;;2.58;;
58250;SDS011;51449;51.676;5.812;2022-09-09T15:45:19;4.10;;;2.67;;
58250;SDS011;51449;51.676;5.812;2022-09-09T15:47:41;5.15;;;2.38;;
58250;SDS011;51449;51.676;5.812;2022-09-09T15:50:03;6.03;;;2.50;;
58250;SDS011;51449;51.676;5.812;2022-09-09T15:52:26;4.82;;;2.17;;
58250;SDS011;51449;51.676;5.812;2022-09-09T15:54:47;5.65;;;2.58;;
58250;SDS011;51449;51.676;5.812;2022-09-09T15:57:11;5.70;;;2.60;;
58250;SDS011;51449;51.676;5.812;2022-09-09T15:59:34;4.60;;;2.22;;
58250;SDS011;51449;51.676;5.812;2022-09-09T16:01:57;4.40;;;1.93;;
58250;SDS011;51449;51.676;5.812;2022-09-09T16:04:22;1.45;;;1.35;;
58250;SDS011;51449;51.676;5.812;2022-09-09T16:09:08;2.07;;;1.87;;
58250;SDS011;51449;51.676;5.812;2022-09-09T16:11:32;3.47;;;1.73;;
58250;SDS011;51449;51.676;5.812;2022-09-09T16:13:58;2.47;;;1.30;;
58250;SDS011;51449;51.676;5.812;2022-09-09T16:16:22;2.17;;;1.90;;
58250;SDS011;51449;51.676;5.812;2022-09-09T16:18:48;2.60;;;1.10;;
58250;SDS011;51449;51.676;5.812;2022-09-09T16:21:15;2.97;;;1.20;;
58250;SDS011;51449;51.676;5.812;2022-09-09T16:23:45;2.70;;;1.30;;
58250;SDS011;51449;51.676;5.812;2022-09-09T16:26:08;1.73;;;1.00;;
58250;SDS011;51449;51.676;5.812;2022-09-09T16:28:34;2.17;;;1.17;;
58250;SDS011;51449;51.676;5.812;2022-09-09T16:30:56;1.10;;;1.00;;
58250;SDS011;51449;51.676;5.812;2022-09-09T16:33:19;2.43;;;1.03;;
58250;SDS011;51449;51.676;5.812;2022-09-09T16:35:41;2.00;;;0.90;;
58250;SDS011;51449;51.676;5.812;2022-09-09T16:38:03;1.30;;;1.00;;
58250;SDS011;51449;51.676;5.812;2022-09-09T16:40:25;2.53;;;1.10;;
58250;SDS011;51449;51.676;5.812;2022-09-09T16:42:47;2.30;;;1.27;;
58250;SDS011;51449;51.676;5.812;2022-09-09T16:45:09;2.53;;;1.20;;
58250;SDS011;51449;51.676;5.812;2022-09-09T16:47:31;2.03;;;1.50;;
58250;SDS011;51449;51.676;5.812;2022-09-09T16:49:53;3.33;;;1.60;;
58250;SDS011;51449;51.676;5.812;2022-09-09T16:52:15;2.87;;;1.30;;